Time;durP1;ratioP1;P1;durP2;ratioP2;P2;SDS_P1;SDS_P2;PMS_P1;PMS_P2;Temp;Humidity;BMP_temperature;BMP_pressure;BME280_temperature;BME280_humidity;BME280_pressure;Samples;Min_cycle;Max_cycle;Signal;HPM_P1;HPM_P2
2021/07/16 00:02:41;;;;;;;4.35;2.05;;;25.00;31.90;;;;;;21207308;27;20048;-63
2021/07/16 00:12:43;;;;;;;4.95;2.78;;;25.10;32.00;;;;;;21167629;28;20130;-76
2021/07/16 00:22:44;;;;;;;5.53;1.60;;;25.10;32.40;;;;;;21165648;28;20496;-78
2021/07/16 00:32:47;;;;;;;4.38;1.70;;;25.10;33.10;;;;;;21162899;28;20054;-65
2021/07/16 00:42:48;;;;;;;3.88;1.75;;;25.10;33.80;;;;;;21165789;28;20057;-64
2021/07/16 00:52:50;;;;;;;2.60;1.30;;;25.00;34.10;;;;;;21190901;28;20139;-68
2021/07/16 01:02:52;;;;;;;4.25;1.73;;;25.00;34.70;;;;;;21163719;28;20053;-78
2021/07/16 01:12:55;;;;;;;3.50;1.35;;;24.90;35.10;;;;;;21170999;28;20052;-66
2021/07/16 01:23:00;;;;;;;4.82;2.13;;;24.90;35.50;;;;;;21198044;28;20064;-72
2021/07/16 01:33:05;;;;;;;2.10;1.48;;;24.80;35.80;;;;;;21179684;28;20047;-78
2021/07/16 01:43:10;;;;;;;2.78;1.58;;;24.70;36.20;;;;;;21177038;28;20058;-76
2021/07/16 01:53:13;;;;;;;3.53;1.48;;;24.70;36.50;;;;;;21176168;28;20480;-67
2021/07/16 02:03:17;;;;;;;3.58;1.50;;;24.60;36.80;;;;;;21175081;28;20400;-64
2021/07/16 02:13:21;;;;;;;3.55;1.58;;;24.30;37.20;;;;;;21174999;28;20376;-79
2021/07/16 02:23:27;;;;;;;3.63;1.30;;;24.20;37.40;;;;;;21177836;28;20132;-70
2021/07/16 02:33:30;;;;;;;2.38;1.20;;;24.10;37.60;;;;;;21174875;28;20044;-65
2021/07/16 02:43:35;;;;;;;2.45;1.52;;;23.90;37.90;;;;;;21176329;28;20100;-73
2021/07/16 02:53:39;;;;;;;2.70;1.30;;;23.80;38.00;;;;;;21179078;28;20158;-73
2021/07/16 03:03:46;;;;;;;3.55;1.45;;;23.70;38.10;;;;;;21179647;28;20083;-63
2021/07/16 03:13:50;;;;;;;2.60;1.60;;;23.60;38.40;;;;;;21173825;28;20069;-63
2021/07/16 03:23:54;;;;;;;5.43;1.42;;;23.60;38.70;;;;;;21177582;28;20063;-78
2021/07/16 03:33:55;;;;;;;3.85;1.25;;;23.40;39.10;;;;;;21180984;28;20047;-65
2021/07/16 03:43:58;;;;;;;;;;;23.30;39.20;;;;;;21183203;28;20491;-63
2021/07/16 03:54:00;;;;;;;2.43;1.83;;;23.20;39.40;;;;;;21177256;28;19920;-73
2021/07/16 04:04:04;;;;;;;2.90;1.75;;;23.20;39.80;;;;;;21177184;28;20143;-64
2021/07/16 04:14:08;;;;;;;3.67;1.58;;;23.10;40.00;;;;;;21196572;28;20047;-65
2021/07/16 04:24:14;;;;;;;4.53;1.63;;;23.10;40.20;;;;;;21168230;28;20047;-64
2021/07/16 04:34:17;;;;;;;3.70;1.92;;;23.00;40.60;;;;;;21165868;28;20051;-76
2021/07/16 04:44:20;;;;;;;5.15;1.45;;;22.80;40.90;;;;;;21166319;28;20388;-64
2021/07/16 04:54:22;;;;;;;2.70;1.73;;;22.80;41.00;;;;;;21170655;28;20130;-64
2021/07/16 05:04:28;;;;;;;2.72;1.60;;;22.80;41.20;;;;;;21179838;28;20047;-76
2021/07/16 05:14:49;;;;;;;2.85;1.60;;;22.70;41.60;;;;;;21178913;28;20048;-64
2021/07/16 05:25:11;;;;;;;4.40;1.80;;;22.60;41.70;;;;;;21177325;28;20488;-64
2021/07/16 05:35:21;;;;;;;4.07;1.60;;;22.70;41.90;;;;;;21177181;28;20508;-75
2021/07/16 05:45:25;;;;;;;5.88;2.00;;;22.70;42.00;;;;;;21175052;28;20460;-67
2021/07/16 05:55:34;;;;;;;5.70;1.95;;;22.60;42.30;;;;;;21175098;28;20040;-69
2021/07/16 06:05:37;;;;;;;6.72;1.98;;;22.70;42.30;;;;;;21172865;28;20052;-67
2021/07/16 06:15:42;;;;;;;3.53;1.83;;;22.70;42.40;;;;;;21175011;28;20043;-75
2021/07/16 06:25:47;;;;;;;6.50;1.90;;;22.70;42.40;;;;;;21171851;28;20067;-65
2021/07/16 06:35:50;;;;;;;6.68;2.53;;;22.70;42.70;;;;;;21170765;28;20465;-65
2021/07/16 06:45:54;;;;;;;6.70;2.17;;;22.90;42.70;;;;;;21171842;28;20071;-63
2021/07/16 06:55:56;;;;;;;4.55;2.20;;;23.10;42.30;;;;;;21171304;28;20058;-64
2021/07/16 07:05:58;;;;;;;6.00;2.30;;;23.50;41.90;;;;;;21169846;28;20063;-66
2021/07/16 07:16:02;;;;;;;6.80;2.58;;;24.10;41.20;;;;;;21170259;28;20126;-66
2021/07/16 07:26:04;;;;;;;15.27;3.10;;;24.90;39.90;;;;;;21169580;28;20055;-76
2021/07/16 07:36:06;;;;;;;4.75;2.28;;;25.50;39.00;;;;;;21209178;28;20092;-71
2021/07/16 07:46:08;;;;;;;;;;;26.10;38.20;;;;;;21169333;28;20146;-65
2021/07/16 07:56:10;;;;;;;3.78;2.10;;;26.40;39.00;;;;;;21166815;28;19920;-71
2021/07/16 08:06:16;;;;;;;5.20;2.60;;;27.00;40.50;;;;;;21163209;28;20055;-65
2021/07/16 08:16:20;;;;;;;10.50;2.53;;;27.20;38.40;;;;;;21160613;28;20176;-64
2021/07/16 08:26:24;;;;;;;5.50;2.38;;;27.50;38.20;;;;;;21162929;28;20059;-67
2021/07/16 08:36:28;;;;;;;5.72;2.55;;;28.00;38.30;;;;;;21182777;28;20047;-75
2021/07/16 08:46:32;;;;;;;6.40;2.50;;;28.20;38.10;;;;;;21161833;28;20491;-76
2021/07/16 08:56:36;;;;;;;7.13;2.53;;;28.60;37.70;;;;;;21160451;28;20078;-74
2021/07/16 09:06:57;;;;;;;5.47;2.20;;;28.90;37.10;;;;;;21158003;28;20047;-58
2021/07/16 09:17:05;;;;;;;6.22;2.10;;;29.30;35.90;;;;;;21158808;28;20154;-60
2021/07/16 09:27:31;;;;;;;9.40;2.20;;;29.50;35.60;;;;;;21163527;28;20055;-59
2021/07/16 09:37:49;;;;;;;5.93;2.17;;;29.90;34.90;;;;;;21163463;28;20058;-58
2021/07/16 09:47:54;;;;;;;;;;;29.90;34.90;;;;;;21174353;28;20445;-59
2021/07/16 09:57:56;;;;;;;8.98;2.40;;;30.10;34.30;;;;;;21172647;28;19920;-60
2021/07/16 10:07:58;;;;;;;4.43;2.70;;;30.10;33.90;;;;;;21171264;28;20063;-58
2021/07/16 10:18:06;;;;;;;6.32;2.63;;;30.10;34.20;;;;;;21169654;28;20059;-60
2021/07/16 10:28:08;;;;;;;5.57;2.58;;;30.50;33.60;;;;;;21169796;28;20157;-61
2021/07/16 10:38:31;;;;;;;10.95;2.65;;;30.80;32.70;;;;;;21168520;28;20051;-60
2021/07/16 10:48:43;;;;;;;8.13;2.35;;;31.00;32.30;;;;;;21170800;28;20471;-73
2021/07/16 10:58:49;;;;;;;6.68;2.25;;;31.10;32.50;;;;;;21171146;28;20541;-73
2021/07/16 11:08:53;;;;;;;7.75;2.75;;;31.10;31.90;;;;;;21168815;28;20075;-72
2021/07/16 11:19:07;;;;;;;8.30;2.80;;;31.10;31.60;;;;;;21169955;28;20120;-72
2021/07/16 11:29:10;;;;;;;7.60;2.45;;;31.50;30.10;;;;;;21166532;28;20050;-73
2021/07/16 11:39:24;;;;;;;6.53;3.05;;;31.60;29.70;;;;;;21167543;28;20106;-72
2021/07/16 11:49:28;;;;;;;5.43;2.47;;;31.60;29.80;;;;;;21167535;28;20548;-69
2021/07/16 11:59:32;;;;;;;8.27;2.80;;;31.80;28.10;;;;;;21164342;28;20054;-72
2021/07/16 12:09:37;;;;;;;6.07;2.70;;;32.10;28.20;;;;;;21163589;28;20127;-72
2021/07/16 12:19:39;;;;;;;4.30;2.17;;;32.20;26.30;;;;;;21163187;28;20052;-72
2021/07/16 12:29:44;;;;;;;5.10;2.25;;;32.60;25.70;;;;;;21163898;28;20385;-73
2021/07/16 12:39:47;;;;;;;6.38;2.13;;;32.50;26.10;;;;;;21162891;28;20074;-70
2021/07/16 12:49:48;;;;;;;9.15;2.30;;;32.70;25.30;;;;;;21162696;28;20043;-73
2021/07/16 12:59:53;;;;;;;2.95;1.50;;;32.80;24.90;;;;;;21161664;28;20134;-73
2021/07/16 13:09:55;;;;;;;4.18;2.05;;;32.70;25.00;;;;;;21164767;28;20400;-71
2021/07/16 13:20:08;;;;;;;5.32;2.20;;;33.10;24.50;;;;;;21176213;28;20065;-72
2021/07/16 13:30:12;;;;;;;3.63;2.10;;;34.30;22.90;;;;;;21193672;28;20048;-70
2021/07/16 13:40:15;;;;;;;6.68;2.42;;;33.80;23.80;;;;;;21236244;28;20047;-69
2021/07/16 13:50:19;;;;;;;5.00;2.17;;;33.20;24.30;;;;;;21221145;27;20043;-72
2021/07/16 14:00:21;;;;;;;12.32;3.88;;;33.30;26.10;;;;;;21181536;28;20105;-74
2021/07/16 14:10:23;;;;;;;4.78;2.15;;;33.30;26.50;;;;;;21174334;28;20488;-74
2021/07/16 14:20:24;;;;;;;4.57;2.40;;;33.20;25.40;;;;;;21172175;28;20059;-75
2021/07/16 14:30:27;;;;;;;5.90;2.60;;;33.30;25.10;;;;;;21171617;28;20111;-74
2021/07/16 14:40:29;;;;;;;4.50;2.30;;;33.40;24.70;;;;;;21178672;28;20075;-70
2021/07/16 14:50:31;;;;;;;6.03;2.25;;;33.50;24.20;;;;;;21180240;28;20039;-72
2021/07/16 15:00:33;;;;;;;3.15;2.08;;;33.50;23.90;;;;;;21170218;27;20052;-74
2021/07/16 15:10:35;;;;;;;5.05;2.17;;;33.70;23.90;;;;;;21169097;28;20044;-74
2021/07/16 15:20:37;;;;;;;4.13;1.90;;;34.00;23.40;;;;;;21169014;28;20052;-74
2021/07/16 15:30:39;;;;;;;4.50;3.35;;;34.10;23.20;;;;;;21168564;28;20055;-75
2021/07/16 15:40:41;;;;;;;5.72;5.20;;;33.90;23.30;;;;;;21166034;28;20070;-73
2021/07/16 15:50:43;;;;;;;3.88;1.83;;;33.90;23.20;;;;;;21166028;28;20075;-73
2021/07/16 16:00:45;;;;;;;4.70;2.28;;;33.90;23.20;;;;;;21165422;28;20051;-72
2021/07/16 16:10:49;;;;;;;3.35;2.03;;;33.90;22.80;;;;;;21166110;28;20085;-74
2021/07/16 16:20:51;;;;;;;4.40;2.63;;;33.90;22.60;;;;;;21166563;28;20138;-72
2021/07/16 16:30:52;;;;;;;3.83;2.00;;;33.90;23.00;;;;;;21167406;28;20087;-74
2021/07/16 16:40:57;;;;;;;7.75;4.30;;;34.10;22.20;;;;;;21166850;28;20124;-73
2021/07/16 16:50:59;;;;;;;3.20;2.13;;;34.20;22.50;;;;;;21173947;28;20131;-74
2021/07/16 17:01:00;;;;;;;3.92;2.95;;;34.30;22.20;;;;;;21186162;28;20469;-68
2021/07/16 17:11:02;;;;;;;3.33;2.13;;;34.30;22.40;;;;;;21179170;28;20048;-69
2021/07/16 17:21:05;;;;;;;4.60;2.25;;;34.30;22.80;;;;;;21176479;28;20488;-74
2021/07/16 17:31:07;;;;;;;4.68;3.72;;;34.50;21.70;;;;;;21177517;28;20040;-74
2021/07/16 17:41:10;;;;;;;4.57;2.38;;;34.20;22.30;;;;;;21174347;28;20165;-71
2021/07/16 17:51:12;;;;;;;4.97;2.33;;;34.10;22.60;;;;;;21175818;28;20047;-71
2021/07/16 18:01:15;;;;;;;4.03;2.38;;;34.10;22.80;;;;;;21172298;28;20090;-71
2021/07/16 18:11:17;;;;;;;2.40;1.80;;;34.00;22.60;;;;;;21177232;28;20050;-71
2021/07/16 18:21:18;;;;;;;3.67;2.30;;;33.90;22.60;;;;;;21174879;28;20055;-72
2021/07/16 18:31:22;;;;;;;5.43;2.42;;;34.00;22.50;;;;;;21175036;28;20486;-68
2021/07/16 18:41:28;;;;;;;6.25;2.60;;;34.00;22.90;;;;;;21173175;28;20135;-69
2021/07/16 18:51:30;;;;;;;4.95;3.00;;;33.70;23.30;;;;;;21173578;28;20564;-69
2021/07/16 19:01:31;;;;;;;6.63;2.80;;;33.70;22.80;;;;;;21172190;28;20051;-71
2021/07/16 19:11:33;;;;;;;4.65;2.70;;;33.50;23.70;;;;;;21168360;28;20044;-72
2021/07/16 19:21:35;;;;;;;6.50;5.55;;;33.20;23.50;;;;;;21168097;28;20059;-72
2021/07/16 19:31:37;;;;;;;9.65;3.25;;;33.10;23.40;;;;;;21166770;28;20444;-72
2021/07/16 19:41:38;;;;;;;6.30;3.65;;;32.80;24.00;;;;;;21165045;28;20063;-72
2021/07/16 19:51:40;;;;;;;8.32;4.60;;;32.60;24.30;;;;;;21165689;28;20075;-67
2021/07/16 20:01:42;;;;;;;9.20;4.47;;;32.20;24.90;;;;;;21148934;28;20079;-71
2021/07/16 20:11:45;;;;;;;9.18;4.20;;;31.90;25.30;;;;;;21178737;28;20049;-70
2021/07/16 20:21:46;;;;;;;8.63;4.55;;;31.60;25.70;;;;;;21164327;28;20130;-71
2021/07/16 20:31:48;;;;;;;9.40;5.63;;;31.50;26.00;;;;;;21166103;28;20507;-68
2021/07/16 20:41:50;;;;;;;12.45;5.55;;;31.20;26.50;;;;;;21163396;28;20105;-68
2021/07/16 20:51:52;;;;;;;10.50;6.10;;;31.00;27.00;;;;;;21163694;28;20104;-69
2021/07/16 21:01:54;;;;;;;21.55;10.07;;;30.90;27.10;;;;;;21163199;28;20484;-72
2021/07/16 21:11:56;;;;;;;23.10;10.75;;;30.60;27.40;;;;;;21162503;28;20051;-73
2021/07/16 21:21:59;;;;;;;8.85;5.32;;;30.50;27.50;;;;;;21161613;28;20055;-75
2021/07/16 21:32:00;;;;;;;13.65;5.90;;;30.30;27.40;;;;;;21164334;28;20085;-70
2021/07/16 21:42:03;;;;;;;12.13;6.95;;;30.10;27.80;;;;;;21174898;28;20147;-72
2021/07/16 21:52:05;;;;;;;15.15;9.85;;;30.00;27.90;;;;;;21177887;28;20484;-68
2021/07/16 22:02:07;;;;;;;10.15;5.50;;;29.80;28.40;;;;;;21174765;28;20051;-71
2021/07/16 22:12:09;;;;;;;4.55;2.63;;;29.60;27.30;;;;;;21175044;28;20051;-69
2021/07/16 22:22:11;;;;;;;3.97;2.25;;;29.60;25.30;;;;;;21175659;28;20059;-69
2021/07/16 22:32:13;;;;;;;3.63;2.13;;;29.60;24.30;;;;;;21174049;28;20506;-71
2021/07/16 22:42:15;;;;;;;5.50;2.20;;;29.60;23.70;;;;;;21172505;28;20051;-67
2021/07/16 22:52:17;;;;;;;3.05;2.05;;;29.50;24.00;;;;;;21171215;28;20431;-67
2021/07/16 23:02:19;;;;;;;4.80;3.05;;;29.40;24.40;;;;;;21170614;28;20059;-72
2021/07/16 23:12:21;;;;;;;5.97;2.90;;;29.20;24.70;;;;;;21170511;28;20073;-72
2021/07/16 23:22:22;;;;;;;6.93;2.28;;;29.00;25.00;;;;;;21168518;28;20096;-67
2021/07/16 23:32:24;;;;;;;3.67;1.80;;;28.90;24.50;;;;;;21168012;28;20083;-73
2021/07/16 23:42:26;;;;;;;2.45;1.50;;;28.80;24.00;;;;;;21167852;28;20055;-69
2021/07/16 23:52:27;;;;;;;2.85;1.60;;;28.80;23.70;;;;;;21167219;28;20393;-70
